sensor_id;sensor_type;location;lat;lon;timestamp;temperature;humidity
7846;DHT22;3968;51.424;6.788;2024-01-30T00:01:15;9.40;99.90
7846;DHT22;3968;51.424;6.788;2024-01-30T00:03:41;9.40;99.90
7846;DHT22;3968;51.424;6.788;2024-01-30T00:06:08;9.40;99.90
7846;DHT22;3968;51.424;6.788;2024-01-30T00:08:34;9.40;99.90
7846;DHT22;3968;51.424;6.788;2024-01-30T00:10:59;9.40;99.90
7846;DHT22;3968;51.424;6.788;2024-01-30T00:13:26;9.40;99.90
7846;DHT22;3968;51.424;6.788;2024-01-30T00:15:52;9.40;99.90
7846;DHT22;3968;51.424;6.788;2024-01-30T00:18:17;9.40;99.90
7846;DHT22;3968;51.424;6.788;2024-01-30T00:20:44;9.40;99.90
7846;DHT22;3968;51.424;6.788;2024-01-30T00:23:09;9.40;99.90
7846;DHT22;3968;51.424;6.788;2024-01-30T00:25:35;9.40;99.90
7846;DHT22;3968;51.424;6.788;2024-01-30T00:28:01;9.40;99.90
7846;DHT22;3968;51.424;6.788;2024-01-30T00:30:26;9.40;99.90
7846;DHT22;3968;51.424;6.788;2024-01-30T00:32:53;9.40;99.90
7846;DHT22;3968;51.424;6.788;2024-01-30T00:35:18;9.40;99.90
7846;DHT22;3968;51.424;6.788;2024-01-30T00:37:44;9.40;99.90
7846;DHT22;3968;51.424;6.788;2024-01-30T00:40:10;9.40;99.90
7846;DHT22;3968;51.424;6.788;2024-01-30T00:42:43;9.40;99.90
7846;DHT22;3968;51.424;6.788;2024-01-30T00:45:16;9.40;99.90
7846;DHT22;3968;51.424;6.788;2024-01-30T00:47:42;9.40;99.90
7846;DHT22;3968;51.424;6.788;2024-01-30T00:50:07;9.40;99.90
7846;DHT22;3968;51.424;6.788;2024-01-30T00:52:33;9.40;99.90
7846;DHT22;3968;51.424;6.788;2024-01-30T00:54:59;9.40;99.90
7846;DHT22;3968;51.424;6.788;2024-01-30T00:57:25;9.40;99.90
7846;DHT22;3968;51.424;6.788;2024-01-30T00:59:51;9.40;99.90
7846;DHT22;3968;51.424;6.788;2024-01-30T01:02:16;9.40;99.90
7846;DHT22;3968;51.424;6.788;2024-01-30T01:04:45;9.40;99.90
7846;DHT22;3968;51.424;6.788;2024-01-30T01:07:11;9.40;99.90
7846;DHT22;3968;51.424;6.788;2024-01-30T01:09:37;9.40;99.90
7846;DHT22;3968;51.424;6.788;2024-01-30T01:12:03;9.50;99.90
7846;DHT22;3968;51.424;6.788;2024-01-30T01:14:29;9.40;99.90
7846;DHT22;3968;51.424;6.788;2024-01-30T01:16:55;9.50;99.90
7846;DHT22;3968;51.424;6.788;2024-01-30T01:19:21;9.50;99.90
7846;DHT22;3968;51.424;6.788;2024-01-30T01:21:47;9.50;99.90
7846;DHT22;3968;51.424;6.788;2024-01-30T01:24:12;9.40;99.90
7846;DHT22;3968;51.424;6.788;2024-01-30T01:26:38;9.50;99.90
7846;DHT22;3968;51.424;6.788;2024-01-30T01:29:04;9.40;99.90
7846;DHT22;3968;51.424;6.788;2024-01-30T01:31:36;9.50;99.90
7846;DHT22;3968;51.424;6.788;2024-01-30T01:34:05;9.50;99.90
7846;DHT22;3968;51.424;6.788;2024-01-30T01:36:31;9.50;99.90
7846;DHT22;3968;51.424;6.788;2024-01-30T01:38:57;9.40;99.90
7846;DHT22;3968;51.424;6.788;2024-01-30T01:41:22;9.40;99.90
7846;DHT22;3968;51.424;6.788;2024-01-30T01:43:48;9.40;99.90
7846;DHT22;3968;51.424;6.788;2024-01-30T01:46:13;9.40;99.90
7846;DHT22;3968;51.424;6.788;2024-01-30T01:48:39;9.40;99.90
7846;DHT22;3968;51.424;6.788;2024-01-30T01:51:06;9.40;99.90
7846;DHT22;3968;51.424;6.788;2024-01-30T01:53:32;9.40;99.90
7846;DHT22;3968;51.424;6.788;2024-01-30T01:55:58;9.40;99.90
7846;DHT22;3968;51.424;6.788;2024-01-30T01:58:26;9.40;99.90
7846;DHT22;3968;51.424;6.788;2024-01-30T02:00:54;9.40;99.90
7846;DHT22;3968;51.424;6.788;2024-01-30T02:03:21;9.40;99.90
7846;DHT22;3968;51.424;6.788;2024-01-30T02:05:47;9.40;99.90
7846;DHT22;3968;51.424;6.788;2024-01-30T02:08:13;9.40;99.90
7846;DHT22;3968;51.424;6.788;2024-01-30T02:10:38;9.40;99.90
7846;DHT22;3968;51.424;6.788;2024-01-30T02:13:04;9.40;99.90
7846;DHT22;3968;51.424;6.788;2024-01-30T02:15:30;9.40;99.90
7846;DHT22;3968;51.424;6.788;2024-01-30T02:17:55;9.40;99.90
7846;DHT22;3968;51.424;6.788;2024-01-30T02:20:22;9.40;99.90
7846;DHT22;3968;51.424;6.788;2024-01-30T02:22:49;9.40;99.90
7846;DHT22;3968;51.424;6.788;2024-01-30T02:25:14;9.40;99.90
7846;DHT22;3968;51.424;6.788;2024-01-30T02:27:40;9.40;99.90
7846;DHT22;3968;51.424;6.788;2024-01-30T02:30:06;9.40;99.90
7846;DHT22;3968;51.424;6.788;2024-01-30T02:32:32;9.40;99.90
7846;DHT22;3968;51.424;6.788;2024-01-30T02:34:57;9.40;99.90
7846;DHT22;3968;51.424;6.788;2024-01-30T02:37:23;9.40;99.90
7846;DHT22;3968;51.424;6.788;2024-01-30T02:39:49;9.30;99.90
7846;DHT22;3968;51.424;6.788;2024-01-30T02:42:14;9.30;99.90
7846;DHT22;3968;51.424;6.788;2024-01-30T02:44:40;9.30;99.90
7846;DHT22;3968;51.424;6.788;2024-01-30T02:47:06;9.30;99.90
7846;DHT22;3968;51.424;6.788;2024-01-30T02:49:31;9.30;99.90
7846;DHT22;3968;51.424;6.788;2024-01-30T02:51:57;9.30;99.90
7846;DHT22;3968;51.424;6.788;2024-01-30T02:54:23;9.30;99.90
7846;DHT22;3968;51.424;6.788;2024-01-30T02:56:48;9.30;99.90
7846;DHT22;3968;51.424;6.788;2024-01-30T02:59:14;9.30;99.90
7846;DHT22;3968;51.424;6.788;2024-01-30T03:01:44;9.30;99.90
7846;DHT22;3968;51.424;6.788;2024-01-30T03:04:10;9.30;99.90
7846;DHT22;3968;51.424;6.788;2024-01-30T03:06:36;9.30;99.90
7846;DHT22;3968;51.424;6.788;2024-01-30T03:09:02;9.30;99.90
7846;DHT22;3968;51.424;6.788;2024-01-30T03:11:27;9.30;99.90
7846;DHT22;3968;51.424;6.788;2024-01-30T03:13:53;9.30;99.90
7846;DHT22;3968;51.424;6.788;2024-01-30T03:19:41;9.30;99.90
7846;DHT22;3968;51.424;6.788;2024-01-30T03:22:06;9.30;99.90
7846;DHT22;3968;51.424;6.788;2024-01-30T03:24:32;9.30;99.90
7846;DHT22;3968;51.424;6.788;2024-01-30T03:26:57;9.30;99.90
7846;DHT22;3968;51.424;6.788;2024-01-30T03:29:23;9.30;99.90
7846;DHT22;3968;51.424;6.788;2024-01-30T03:31:48;9.40;99.90
7846;DHT22;3968;51.424;6.788;2024-01-30T03:34:14;9.30;99.90
7846;DHT22;3968;51.424;6.788;2024-01-30T03:36:39;9.30;99.90
7846;DHT22;3968;51.424;6.788;2024-01-30T03:39:05;9.30;99.90
7846;DHT22;3968;51.424;6.788;2024-01-30T03:41:31;9.30;99.90
7846;DHT22;3968;51.424;6.788;2024-01-30T03:43:57;9.30;99.90
7846;DHT22;3968;51.424;6.788;2024-01-30T03:46:22;9.30;99.90
7846;DHT22;3968;51.424;6.788;2024-01-30T03:48:48;9.30;99.90
7846;DHT22;3968;51.424;6.788;2024-01-30T03:51:13;9.30;99.90
7846;DHT22;3968;51.424;6.788;2024-01-30T03:53:41;9.40;99.90
7846;DHT22;3968;51.424;6.788;2024-01-30T03:56:07;9.30;99.90
7846;DHT22;3968;51.424;6.788;2024-01-30T03:58:33;9.30;99.90
7846;DHT22;3968;51.424;6.788;2024-01-30T04:00:59;9.30;99.90
7846;DHT22;3968;51.424;6.788;2024-01-30T04:03:24;9.30;99.90
7846;DHT22;3968;51.424;6.788;2024-01-30T04:05:52;9.30;99.90
7846;DHT22;3968;51.424;6.788;2024-01-30T04:08:18;9.30;99.90
7846;DHT22;3968;51.424;6.788;2024-01-30T04:10:43;9.30;99.90
7846;DHT22;3968;51.424;6.788;2024-01-30T04:13:09;9.30;99.90
7846;DHT22;3968;51.424;6.788;2024-01-30T04:15:35;9.30;99.90
7846;DHT22;3968;51.424;6.788;2024-01-30T04:18:01;9.30;99.90
7846;DHT22;3968;51.424;6.788;2024-01-30T04:20:26;9.30;99.90
7846;DHT22;3968;51.424;6.788;2024-01-30T04:22:52;9.30;99.90
7846;DHT22;3968;51.424;6.788;2024-01-30T04:25:17;9.20;99.90
7846;DHT22;3968;51.424;6.788;2024-01-30T04:27:43;9.20;99.90
7846;DHT22;3968;51.424;6.788;2024-01-30T04:30:09;9.20;99.90
7846;DHT22;3968;51.424;6.788;2024-01-30T04:32:35;9.20;99.90
7846;DHT22;3968;51.424;6.788;2024-01-30T04:35:01;9.20;99.90
7846;DHT22;3968;51.424;6.788;2024-01-30T04:37:27;9.20;99.90
7846;DHT22;3968;51.424;6.788;2024-01-30T04:39:53;9.20;99.90
7846;DHT22;3968;51.424;6.788;2024-01-30T04:42:19;9.20;99.90
7846;DHT22;3968;51.424;6.788;2024-01-30T04:44:44;9.20;99.90
7846;DHT22;3968;51.424;6.788;2024-01-30T04:47:10;9.20;99.90
7846;DHT22;3968;51.424;6.788;2024-01-30T04:49:38;9.20;99.90
7846;DHT22;3968;51.424;6.788;2024-01-30T04:52:05;9.20;99.90
7846;DHT22;3968;51.424;6.788;2024-01-30T04:54:31;9.20;99.90
7846;DHT22;3968;51.424;6.788;2024-01-30T04:56:56;9.20;99.90
7846;DHT22;3968;51.424;6.788;2024-01-30T04:59:22;9.20;99.90
7846;DHT22;3968;51.424;6.788;2024-01-30T05:01:48;9.20;99.90
7846;DHT22;3968;51.424;6.788;2024-01-30T05:04:13;9.20;99.90
7846;DHT22;3968;51.424;6.788;2024-01-30T05:06:41;9.20;99.90
7846;DHT22;3968;51.424;6.788;2024-01-30T05:09:06;9.20;99.90
7846;DHT22;3968;51.424;6.788;2024-01-30T05:11:40;9.20;99.90
7846;DHT22;3968;51.424;6.788;2024-01-30T05:14:06;9.20;99.90
7846;DHT22;3968;51.424;6.788;2024-01-30T05:16:32;9.20;99.90
7846;DHT22;3968;51.424;6.788;2024-01-30T05:18:58;9.20;99.90
7846;DHT22;3968;51.424;6.788;2024-01-30T05:21:24;9.20;99.90
7846;DHT22;3968;51.424;6.788;2024-01-30T05:23:50;9.20;99.90
7846;DHT22;3968;51.424;6.788;2024-01-30T05:26:16;9.20;99.90
7846;DHT22;3968;51.424;6.788;2024-01-30T05:28:42;9.20;99.90
7846;DHT22;3968;51.424;6.788;2024-01-30T05:31:10;9.20;99.90
7846;DHT22;3968;51.424;6.788;2024-01-30T05:33:35;9.20;99.90
7846;DHT22;3968;51.424;6.788;2024-01-30T05:36:01;9.20;99.90
7846;DHT22;3968;51.424;6.788;2024-01-30T05:38:26;9.20;99.90
7846;DHT22;3968;51.424;6.788;2024-01-30T05:40:52;9.20;99.90
7846;DHT22;3968;51.424;6.788;2024-01-30T05:43:18;9.20;99.90
7846;DHT22;3968;51.424;6.788;2024-01-30T05:45:43;9.20;99.90
7846;DHT22;3968;51.424;6.788;2024-01-30T05:48:09;9.20;99.90
7846;DHT22;3968;51.424;6.788;2024-01-30T05:50:35;9.20;99.90
7846;DHT22;3968;51.424;6.788;2024-01-30T05:53:01;9.20;99.90
7846;DHT22;3968;51.424;6.788;2024-01-30T05:55:26;9.20;99.90
7846;DHT22;3968;51.424;6.788;2024-01-30T05:57:52;9.20;99.90
7846;DHT22;3968;51.424;6.788;2024-01-30T06:00:18;9.20;99.90
7846;DHT22;3968;51.424;6.788;2024-01-30T06:02:44;9.20;99.90
7846;DHT22;3968;51.424;6.788;2024-01-30T06:05:09;9.20;99.90
7846;DHT22;3968;51.424;6.788;2024-01-30T06:07:35;9.20;99.90
7846;DHT22;3968;51.424;6.788;2024-01-30T06:10:00;9.20;99.90
7846;DHT22;3968;51.424;6.788;2024-01-30T06:12:27;9.20;99.90
7846;DHT22;3968;51.424;6.788;2024-01-30T06:14:53;9.20;99.90
7846;DHT22;3968;51.424;6.788;2024-01-30T06:17:22;9.20;99.90
7846;DHT22;3968;51.424;6.788;2024-01-30T06:19:47;9.20;99.90
7846;DHT22;3968;51.424;6.788;2024-01-30T06:22:13;9.20;99.90
7846;DHT22;3968;51.424;6.788;2024-01-30T06:24:39;9.20;99.90
7846;DHT22;3968;51.424;6.788;2024-01-30T06:27:04;9.20;99.90
7846;DHT22;3968;51.424;6.788;2024-01-30T06:29:30;9.30;99.90
7846;DHT22;3968;51.424;6.788;2024-01-30T06:31:55;9.30;99.90
7846;DHT22;3968;51.424;6.788;2024-01-30T06:34:21;9.30;99.90
7846;DHT22;3968;51.424;6.788;2024-01-30T06:36:47;9.30;99.90
7846;DHT22;3968;51.424;6.788;2024-01-30T06:39:12;9.30;99.90
7846;DHT22;3968;51.424;6.788;2024-01-30T06:41:38;9.30;99.90
7846;DHT22;3968;51.424;6.788;2024-01-30T06:44:03;9.30;99.90
7846;DHT22;3968;51.424;6.788;2024-01-30T06:46:33;9.30;99.90
7846;DHT22;3968;51.424;6.788;2024-01-30T06:48:59;9.30;99.90
7846;DHT22;3968;51.424;6.788;2024-01-30T06:51:25;9.40;99.90
7846;DHT22;3968;51.424;6.788;2024-01-30T06:53:50;9.40;99.90
7846;DHT22;3968;51.424;6.788;2024-01-30T06:56:16;9.40;99.90
7846;DHT22;3968;51.424;6.788;2024-01-30T06:58:47;9.40;99.90
7846;DHT22;3968;51.424;6.788;2024-01-30T07:01:12;9.40;99.90
7846;DHT22;3968;51.424;6.788;2024-01-30T07:03:38;9.40;99.90
7846;DHT22;3968;51.424;6.788;2024-01-30T07:06:04;9.40;99.90
7846;DHT22;3968;51.424;6.788;2024-01-30T07:08:29;9.40;99.90
7846;DHT22;3968;51.424;6.788;2024-01-30T07:10:55;9.40;99.90
7846;DHT22;3968;51.424;6.788;2024-01-30T07:13:21;9.40;99.90
7846;DHT22;3968;51.424;6.788;2024-01-30T07:15:47;9.40;99.90
7846;DHT22;3968;51.424;6.788;2024-01-30T07:18:12;9.40;99.90
7846;DHT22;3968;51.424;6.788;2024-01-30T07:20:39;9.40;99.90
7846;DHT22;3968;51.424;6.788;2024-01-30T07:23:15;9.40;99.90
7846;DHT22;3968;51.424;6.788;2024-01-30T07:25:43;9.50;99.90
7846;DHT22;3968;51.424;6.788;2024-01-30T07:28:10;9.40;99.90
7846;DHT22;3968;51.424;6.788;2024-01-30T07:30:36;9.40;99.90
7846;DHT22;3968;51.424;6.788;2024-01-30T07:33:02;9.40;99.90
7846;DHT22;3968;51.424;6.788;2024-01-30T07:35:28;9.50;99.90
7846;DHT22;3968;51.424;6.788;2024-01-30T07:37:53;9.40;99.90
7846;DHT22;3968;51.424;6.788;2024-01-30T07:40:19;9.50;99.90
7846;DHT22;3968;51.424;6.788;2024-01-30T07:42:44;9.50;99.90
7846;DHT22;3968;51.424;6.788;2024-01-30T07:45:10;9.50;99.90
7846;DHT22;3968;51.424;6.788;2024-01-30T07:47:36;9.50;99.90
7846;DHT22;3968;51.424;6.788;2024-01-30T07:50:01;9.50;99.90
7846;DHT22;3968;51.424;6.788;2024-01-30T07:52:27;9.50;99.90
7846;DHT22;3968;51.424;6.788;2024-01-30T07:54:52;9.50;99.90
7846;DHT22;3968;51.424;6.788;2024-01-30T07:57:18;9.60;99.90
7846;DHT22;3968;51.424;6.788;2024-01-30T07:59:44;9.60;99.90
7846;DHT22;3968;51.424;6.788;2024-01-30T08:02:13;9.60;99.90
7846;DHT22;3968;51.424;6.788;2024-01-30T08:04:39;9.60;99.90
7846;DHT22;3968;51.424;6.788;2024-01-30T08:07:05;9.60;99.90
7846;DHT22;3968;51.424;6.788;2024-01-30T08:09:30;9.60;99.90
7846;DHT22;3968;51.424;6.788;2024-01-30T08:11:56;9.60;99.90
7846;DHT22;3968;51.424;6.788;2024-01-30T08:14:21;9.60;99.90
7846;DHT22;3968;51.424;6.788;2024-01-30T08:16:47;9.70;99.90
7846;DHT22;3968;51.424;6.788;2024-01-30T08:19:14;9.70;99.90
7846;DHT22;3968;51.424;6.788;2024-01-30T08:21:40;9.80;99.90
7846;DHT22;3968;51.424;6.788;2024-01-30T08:24:06;9.80;99.90
7846;DHT22;3968;51.424;6.788;2024-01-30T08:26:32;9.80;99.90
7846;DHT22;3968;51.424;6.788;2024-01-30T08:28:58;9.80;99.90
7846;DHT22;3968;51.424;6.788;2024-01-30T08:31:24;9.80;99.90
7846;DHT22;3968;51.424;6.788;2024-01-30T08:33:49;9.80;99.90
7846;DHT22;3968;51.424;6.788;2024-01-30T08:36:16;9.90;99.90
7846;DHT22;3968;51.424;6.788;2024-01-30T08:38:42;9.90;99.90
7846;DHT22;3968;51.424;6.788;2024-01-30T08:41:08;9.90;99.90
7846;DHT22;3968;51.424;6.788;2024-01-30T08:43:34;9.90;99.90
7846;DHT22;3968;51.424;6.788;2024-01-30T08:46:00;10.00;99.90
7846;DHT22;3968;51.424;6.788;2024-01-30T08:48:26;10.00;99.90
7846;DHT22;3968;51.424;6.788;2024-01-30T08:50:52;10.00;99.90
7846;DHT22;3968;51.424;6.788;2024-01-30T08:53:17;10.00;99.90
7846;DHT22;3968;51.424;6.788;2024-01-30T08:55:44;10.10;99.90
7846;DHT22;3968;51.424;6.788;2024-01-30T08:58:09;10.10;99.90
7846;DHT22;3968;51.424;6.788;2024-01-30T09:00:36;10.10;99.90
7846;DHT22;3968;51.424;6.788;2024-01-30T09:03:01;10.10;99.90
7846;DHT22;3968;51.424;6.788;2024-01-30T09:05:27;10.20;99.90
7846;DHT22;3968;51.424;6.788;2024-01-30T09:07:52;10.20;99.90
7846;DHT22;3968;51.424;6.788;2024-01-30T09:10:19;10.20;99.90
7846;DHT22;3968;51.424;6.788;2024-01-30T09:12:46;10.20;99.90
7846;DHT22;3968;51.424;6.788;2024-01-30T09:15:11;10.20;99.90
7846;DHT22;3968;51.424;6.788;2024-01-30T09:17:37;10.20;99.90
7846;DHT22;3968;51.424;6.788;2024-01-30T09:20:03;10.30;99.90
7846;DHT22;3968;51.424;6.788;2024-01-30T09:22:28;10.30;99.90
7846;DHT22;3968;51.424;6.788;2024-01-30T09:24:54;10.30;99.90
7846;DHT22;3968;51.424;6.788;2024-01-30T09:27:20;10.40;99.90
7846;DHT22;3968;51.424;6.788;2024-01-30T09:29:45;10.40;99.90
7846;DHT22;3968;51.424;6.788;2024-01-30T09:32:11;10.40;99.90
7846;DHT22;3968;51.424;6.788;2024-01-30T09:34:36;10.50;99.90
7846;DHT22;3968;51.424;6.788;2024-01-30T09:37:02;10.60;99.90
7846;DHT22;3968;51.424;6.788;2024-01-30T09:39:27;10.60;99.90
7846;DHT22;3968;51.424;6.788;2024-01-30T09:42:08;10.70;99.90
7846;DHT22;3968;51.424;6.788;2024-01-30T09:44:38;10.70;99.90
7846;DHT22;3968;51.424;6.788;2024-01-30T09:47:04;10.70;99.90
7846;DHT22;3968;51.424;6.788;2024-01-30T09:49:34;10.70;99.90
7846;DHT22;3968;51.424;6.788;2024-01-30T09:52:01;10.80;99.90
7846;DHT22;3968;51.424;6.788;2024-01-30T09:54:30;10.80;99.90
7846;DHT22;3968;51.424;6.788;2024-01-30T09:56:56;10.90;99.90
7846;DHT22;3968;51.424;6.788;2024-01-30T09:59:22;10.90;99.90
7846;DHT22;3968;51.424;6.788;2024-01-30T10:01:47;11.00;99.90
7846;DHT22;3968;51.424;6.788;2024-01-30T10:04:13;11.00;99.90
7846;DHT22;3968;51.424;6.788;2024-01-30T10:06:40;11.10;99.90
7846;DHT22;3968;51.424;6.788;2024-01-30T10:09:06;11.10;99.90
7846;DHT22;3968;51.424;6.788;2024-01-30T10:11:31;11.10;99.90
7846;DHT22;3968;51.424;6.788;2024-01-30T10:13:57;11.20;99.90
7846;DHT22;3968;51.424;6.788;2024-01-30T10:16:22;11.30;99.90
7846;DHT22;3968;51.424;6.788;2024-01-30T10:18:49;11.30;99.90
7846;DHT22;3968;51.424;6.788;2024-01-30T10:21:14;11.40;99.90
7846;DHT22;3968;51.424;6.788;2024-01-30T10:23:40;11.40;99.90
7846;DHT22;3968;51.424;6.788;2024-01-30T10:26:07;11.50;99.90
7846;DHT22;3968;51.424;6.788;2024-01-30T10:28:33;11.50;99.90
7846;DHT22;3968;51.424;6.788;2024-01-30T10:30:59;11.50;99.90
7846;DHT22;3968;51.424;6.788;2024-01-30T10:33:26;11.40;99.90
7846;DHT22;3968;51.424;6.788;2024-01-30T10:35:56;11.50;99.90
7846;DHT22;3968;51.424;6.788;2024-01-30T10:38:28;11.50;99.90
7846;DHT22;3968;51.424;6.788;2024-01-30T10:40:57;11.50;99.90
7846;DHT22;3968;51.424;6.788;2024-01-30T10:43:35;11.50;99.90
7846;DHT22;3968;51.424;6.788;2024-01-30T10:48:42;11.60;99.90
7846;DHT22;3968;51.424;6.788;2024-01-30T10:51:10;11.60;99.90
7846;DHT22;3968;51.424;6.788;2024-01-30T10:53:38;11.60;99.90
7846;DHT22;3968;51.424;6.788;2024-01-30T10:56:04;11.60;99.90
7846;DHT22;3968;51.424;6.788;2024-01-30T10:58:30;11.60;99.90
7846;DHT22;3968;51.424;6.788;2024-01-30T11:00:56;11.60;99.90
7846;DHT22;3968;51.424;6.788;2024-01-30T11:03:23;11.70;99.90
7846;DHT22;3968;51.424;6.788;2024-01-30T11:05:50;11.70;99.90
7846;DHT22;3968;51.424;6.788;2024-01-30T11:08:25;11.70;99.90
7846;DHT22;3968;51.424;6.788;2024-01-30T11:10:57;11.80;99.90
7846;DHT22;3968;51.424;6.788;2024-01-30T11:13:30;11.80;99.90
7846;DHT22;3968;51.424;6.788;2024-01-30T11:16:00;11.80;99.90
7846;DHT22;3968;51.424;6.788;2024-01-30T11:18:30;11.90;99.90
7846;DHT22;3968;51.424;6.788;2024-01-30T11:20:56;11.90;99.90
7846;DHT22;3968;51.424;6.788;2024-01-30T11:23:23;11.90;99.90
7846;DHT22;3968;51.424;6.788;2024-01-30T11:25:49;11.90;99.90
7846;DHT22;3968;51.424;6.788;2024-01-30T11:28:17;11.90;99.90
7846;DHT22;3968;51.424;6.788;2024-01-30T11:30:43;11.90;99.90
7846;DHT22;3968;51.424;6.788;2024-01-30T11:33:13;11.90;99.90
7846;DHT22;3968;51.424;6.788;2024-01-30T11:35:40;11.90;99.90
7846;DHT22;3968;51.424;6.788;2024-01-30T11:38:13;11.90;99.90
7846;DHT22;3968;51.424;6.788;2024-01-30T11:40:39;11.80;99.90
7846;DHT22;3968;51.424;6.788;2024-01-30T11:43:07;11.80;99.90
7846;DHT22;3968;51.424;6.788;2024-01-30T11:45:33;11.80;99.90
7846;DHT22;3968;51.424;6.788;2024-01-30T11:48:00;11.70;99.90
7846;DHT22;3968;51.424;6.788;2024-01-30T11:50:29;11.70;99.90
7846;DHT22;3968;51.424;6.788;2024-01-30T11:52:55;11.70;99.90
7846;DHT22;3968;51.424;6.788;2024-01-30T11:55:21;11.70;99.90
7846;DHT22;3968;51.424;6.788;2024-01-30T11:57:47;11.70;99.90
7846;DHT22;3968;51.424;6.788;2024-01-30T12:00:16;11.70;99.90
7846;DHT22;3968;51.424;6.788;2024-01-30T12:02:43;11.70;99.90
7846;DHT22;3968;51.424;6.788;2024-01-30T12:05:09;11.70;99.90
7846;DHT22;3968;51.424;6.788;2024-01-30T12:07:37;11.70;99.90
7846;DHT22;3968;51.424;6.788;2024-01-30T12:10:03;11.70;99.90
7846;DHT22;3968;51.424;6.788;2024-01-30T12:12:30;11.70;99.90
7846;DHT22;3968;51.424;6.788;2024-01-30T12:14:56;11.80;99.90
7846;DHT22;3968;51.424;6.788;2024-01-30T12:20:14;11.80;99.90
7846;DHT22;3968;51.424;6.788;2024-01-30T12:22:41;11.80;99.90
7846;DHT22;3968;51.424;6.788;2024-01-30T12:25:11;11.90;99.90
7846;DHT22;3968;51.424;6.788;2024-01-30T12:27:44;11.80;99.90
7846;DHT22;3968;51.424;6.788;2024-01-30T12:30:11;11.90;99.90
7846;DHT22;3968;51.424;6.788;2024-01-30T12:32:41;11.90;99.90
7846;DHT22;3968;51.424;6.788;2024-01-30T12:35:12;11.90;99.90
7846;DHT22;3968;51.424;6.788;2024-01-30T12:37:38;11.90;99.90
7846;DHT22;3968;51.424;6.788;2024-01-30T12:40:05;11.80;99.90
7846;DHT22;3968;51.424;6.788;2024-01-30T12:42:31;11.80;99.90
7846;DHT22;3968;51.424;6.788;2024-01-30T12:44:58;11.80;99.90
7846;DHT22;3968;51.424;6.788;2024-01-30T12:47:24;11.80;99.90
7846;DHT22;3968;51.424;6.788;2024-01-30T12:49:50;11.80;99.90
7846;DHT22;3968;51.424;6.788;2024-01-30T12:52:19;11.80;99.90
7846;DHT22;3968;51.424;6.788;2024-01-30T12:54:45;11.80;99.90
7846;DHT22;3968;51.424;6.788;2024-01-30T12:57:10;11.80;99.90
7846;DHT22;3968;51.424;6.788;2024-01-30T12:59:36;11.80;99.90
7846;DHT22;3968;51.424;6.788;2024-01-30T13:02:02;11.80;99.90
7846;DHT22;3968;51.424;6.788;2024-01-30T13:04:29;11.80;99.90
7846;DHT22;3968;51.424;6.788;2024-01-30T13:06:54;11.80;99.90
7846;DHT22;3968;51.424;6.788;2024-01-30T13:09:20;11.80;99.90
7846;DHT22;3968;51.424;6.788;2024-01-30T13:11:46;11.80;99.90
7846;DHT22;3968;51.424;6.788;2024-01-30T13:14:12;11.80;99.90
7846;DHT22;3968;51.424;6.788;2024-01-30T13:16:37;11.80;99.90
7846;DHT22;3968;51.424;6.788;2024-01-30T13:19:03;11.80;99.90
7846;DHT22;3968;51.424;6.788;2024-01-30T13:21:29;11.90;99.90
7846;DHT22;3968;51.424;6.788;2024-01-30T13:23:54;11.90;99.90
7846;DHT22;3968;51.424;6.788;2024-01-30T13:26:21;11.80;99.90
7846;DHT22;3968;51.424;6.788;2024-01-30T13:28:46;11.90;99.90
7846;DHT22;3968;51.424;6.788;2024-01-30T13:31:13;11.90;99.90
7846;DHT22;3968;51.424;6.788;2024-01-30T13:33:40;11.90;99.90
7846;DHT22;3968;51.424;6.788;2024-01-30T13:36:09;12.00;99.90
7846;DHT22;3968;51.424;6.788;2024-01-30T13:38:35;12.00;99.90
7846;DHT22;3968;51.424;6.788;2024-01-30T13:41:01;12.10;99.90
7846;DHT22;3968;51.424;6.788;2024-01-30T13:43:26;12.10;99.90
7846;DHT22;3968;51.424;6.788;2024-01-30T13:45:52;12.20;99.90
7846;DHT22;3968;51.424;6.788;2024-01-30T13:48:18;12.20;99.90
7846;DHT22;3968;51.424;6.788;2024-01-30T13:50:44;12.20;99.90
7846;DHT22;3968;51.424;6.788;2024-01-30T13:53:09;12.20;99.90
7846;DHT22;3968;51.424;6.788;2024-01-30T13:55:35;12.20;99.90
7846;DHT22;3968;51.424;6.788;2024-01-30T13:58:01;12.20;99.90
7846;DHT22;3968;51.424;6.788;2024-01-30T14:00:27;12.20;99.90
7846;DHT22;3968;51.424;6.788;2024-01-30T14:02:53;12.20;99.90
7846;DHT22;3968;51.424;6.788;2024-01-30T14:05:23;12.30;99.90
7846;DHT22;3968;51.424;6.788;2024-01-30T14:07:48;12.40;99.90
7846;DHT22;3968;51.424;6.788;2024-01-30T14:10:15;12.40;99.90
7846;DHT22;3968;51.424;6.788;2024-01-30T14:12:42;12.50;99.90
7846;DHT22;3968;51.424;6.788;2024-01-30T14:15:09;12.50;99.90
7846;DHT22;3968;51.424;6.788;2024-01-30T14:17:38;12.50;99.90
7846;DHT22;3968;51.424;6.788;2024-01-30T14:20:04;12.50;99.90
7846;DHT22;3968;51.424;6.788;2024-01-30T14:22:30;12.50;99.90
7846;DHT22;3968;51.424;6.788;2024-01-30T14:24:56;12.50;99.90
7846;DHT22;3968;51.424;6.788;2024-01-30T14:27:22;12.50;99.90
7846;DHT22;3968;51.424;6.788;2024-01-30T14:29:48;12.40;99.90
7846;DHT22;3968;51.424;6.788;2024-01-30T14:32:13;12.40;99.90
7846;DHT22;3968;51.424;6.788;2024-01-30T14:34:39;12.40;99.90
7846;DHT22;3968;51.424;6.788;2024-01-30T14:37:05;12.40;99.90
7846;DHT22;3968;51.424;6.788;2024-01-30T14:39:30;12.50;99.90
7846;DHT22;3968;51.424;6.788;2024-01-30T14:41:57;12.40;99.90
7846;DHT22;3968;51.424;6.788;2024-01-30T14:44:22;12.40;99.90
7846;DHT22;3968;51.424;6.788;2024-01-30T14:46:48;12.40;99.90
7846;DHT22;3968;51.424;6.788;2024-01-30T14:49:14;12.40;99.90
7846;DHT22;3968;51.424;6.788;2024-01-30T14:51:41;12.30;99.90
7846;DHT22;3968;51.424;6.788;2024-01-30T14:54:06;12.30;99.90
7846;DHT22;3968;51.424;6.788;2024-01-30T14:56:32;12.30;99.90
7846;DHT22;3968;51.424;6.788;2024-01-30T14:58:58;12.20;99.90
7846;DHT22;3968;51.424;6.788;2024-01-30T15:01:24;12.20;99.90
7846;DHT22;3968;51.424;6.788;2024-01-30T15:03:49;12.20;99.90
7846;DHT22;3968;51.424;6.788;2024-01-30T15:06:17;12.20;99.90
7846;DHT22;3968;51.424;6.788;2024-01-30T15:08:43;12.10;99.90
7846;DHT22;3968;51.424;6.788;2024-01-30T15:11:09;12.10;99.90
7846;DHT22;3968;51.424;6.788;2024-01-30T15:13:35;12.00;99.90
7846;DHT22;3968;51.424;6.788;2024-01-30T15:16:02;12.00;99.90
7846;DHT22;3968;51.424;6.788;2024-01-30T15:18:30;12.00;99.90
7846;DHT22;3968;51.424;6.788;2024-01-30T15:20:56;11.90;99.90
7846;DHT22;3968;51.424;6.788;2024-01-30T15:23:21;11.90;99.90
7846;DHT22;3968;51.424;6.788;2024-01-30T15:25:47;11.80;99.90
7846;DHT22;3968;51.424;6.788;2024-01-30T15:28:13;11.80;99.90
7846;DHT22;3968;51.424;6.788;2024-01-30T15:30:40;11.70;99.90
7846;DHT22;3968;51.424;6.788;2024-01-30T15:33:09;11.70;99.90
7846;DHT22;3968;51.424;6.788;2024-01-30T15:35:34;11.60;99.90
7846;DHT22;3968;51.424;6.788;2024-01-30T15:38:00;11.50;99.90
7846;DHT22;3968;51.424;6.788;2024-01-30T15:40:25;11.50;99.90
7846;DHT22;3968;51.424;6.788;2024-01-30T15:42:51;11.50;99.90
7846;DHT22;3968;51.424;6.788;2024-01-30T15:45:17;11.50;99.90
7846;DHT22;3968;51.424;6.788;2024-01-30T15:47:43;11.40;99.90
7846;DHT22;3968;51.424;6.788;2024-01-30T15:50:11;11.40;99.90
7846;DHT22;3968;51.424;6.788;2024-01-30T15:52:37;11.40;99.90
7846;DHT22;3968;51.424;6.788;2024-01-30T15:55:02;11.30;99.90
7846;DHT22;3968;51.424;6.788;2024-01-30T15:57:28;11.40;99.90
7846;DHT22;3968;51.424;6.788;2024-01-30T15:59:54;11.30;99.90
7846;DHT22;3968;51.424;6.788;2024-01-30T16:02:20;11.30;99.90
7846;DHT22;3968;51.424;6.788;2024-01-30T16:04:46;11.30;99.90
7846;DHT22;3968;51.424;6.788;2024-01-30T16:07:12;11.20;99.90
7846;DHT22;3968;51.424;6.788;2024-01-30T16:09:38;11.10;99.90
7846;DHT22;3968;51.424;6.788;2024-01-30T16:12:04;11.10;99.90